Time,TemperatureF,DewpointF,PressureIn,WindDirection,WindDirectionDegrees,WindSpeedMPH,WindSpeedGustMPH,Humidity,HourlyPrecipIn,Conditions,Clouds,dailyrainin,SoftwareType,DateUTC
2013-09-15 00:00:00,78.3,70.1,29.91,North,0,0.0,0.0,76,0.00,,SCT120,0.00,VWS V14.01,2013-09-15 04:00:00,
2013-09-15 00:01:00,78.3,70.1,29.91,North,0,0.0,0.0,76,0.00,,SCT120,0.00,VWS V14.01,2013-09-15 04:01:00,
2013-09-15 00:03:00,78.1,69.9,29.91,North,0,0.0,0.0,76,0.00,,SCT120,0.00,VWS V14.01,2013-09-15 04:03:00,
2013-09-15 00:08:00,77.9,69.7,29.91,North,0,0.0,0.0,76,0.00,,SCT120,0.00,VWS V14.01,2013-09-15 04:08:00,
2013-09-15 00:13:00,77.9,69.7,29.88,North,0,0.0,0.0,76,0.00,,SCT120,0.00,VWS V14.01,2013-09-15 04:13:00,
2013-09-15 00:18:00,77.9,69.7,29.88,North,0,0.0,0.0,76,0.00,,SCT120,0.00,VWS V14.01,2013-09-15 04:18:00,
2013-09-15 00:23:00,77.9,70.1,29.88,North,0,0.0,0.0,77,0.00,,SCT120,0.00,VWS V14.01,2013-09-15 04:23:00,
2013-09-15 00:28:00,77.9,70.1,29.88,North,0,0.0,0.0,77,0.00,,SCT120,0.00,VWS V14.01,2013-09-15 04:28:00,
2013-09-15 00:33:00,77.9,70.1,29.88,North,0,0.0,0.0,77,0.00,,SCT120,0.00,VWS V14.01,2013-09-15 04:33:00,
2013-09-15 00:38:00,78.1,70.3,29.88,North,0,0.0,0.0,77,0.00,,SCT120,0.00,VWS V14.01,2013-09-15 04:38:00,
2013-09-15 00:43:00,78.1,70.3,29.88,North,0,0.0,0.0,77,0.00,,SCT120,0.00,VWS V14.01,2013-09-15 04:43:00,
2013-09-15 00:48:00,77.9,70.1,29.88,North,0,0.0,0.0,77,0.00,,SCT120,0.00,VWS V14.01,2013-09-15 04:48:00,
2013-09-15 00:53:00,77.7,69.9,29.88,North,0,0.0,0.0,77,0.00,,SCT120,0.00,VWS V14.01,2013-09-15 04:53:00,
2013-09-15 00:58:00,77.5,69.8,29.88,North,0,0.0,0.0,77,0.00,,SCT120,0.00,VWS V14.01,2013-09-15 04:58:00,
2013-09-15 01:03:00,77.4,69.6,29.88,North,0,0.0,0.0,77,0.00,,SCT120,0.00,VWS V14.01,2013-09-15 05:03:00,
2013-09-15 01:08:00,77.4,70.0,29.88,North,0,0.0,0.0,78,0.00,,SCT120,0.00,VWS V14.01,2013-09-15 05:08:00,
2013-09-15 01:13:00,77.5,70.1,29.88,North,0,0.0,0.0,78,0.00,,SCT120,0.00,VWS V14.01,2013-09-15 05:13:00,
2013-09-15 01:18:00,77.4,70.0,29.88,North,0,0.0,0.0,78,0.00,,SCT120,0.00,VWS V14.01,2013-09-15 05:18:00,
2013-09-15 01:23:00,77.2,69.8,29.88,North,0,0.0,0.0,78,0.00,,SCT120,0.00,VWS V14.01,2013-09-15 05:23:00,
2013-09-15 01:28:00,77.4,70.0,29.88,North,0,0.0,0.0,78,0.00,,SCT120,0.00,VWS V14.01,2013-09-15 05:28:00,
2013-09-15 01:33:00,77.5,70.1,29.88,North,0,0.0,0.0,78,0.00,,SCT120,0.00,VWS V14.01,2013-09-15 05:33:00,
2013-09-15 01:38:00,77.4,70.0,29.88,North,0,0.0,0.0,78,0.00,,SCT120,0.00,VWS V14.01,2013-09-15 05:38:00,
2013-09-15 01:43:00,77.2,69.8,29.88,North,0,0.0,0.0,78,0.00,,SCT120,0.00,VWS V14.01,2013-09-15 05:43:00,
2013-09-15 01:48:00,77.0,70.0,29.88,North,0,0.0,0.0,79,0.00,,SCT120,0.00,VWS V14.01,2013-09-15 05:48:00,
2013-09-15 01:53:00,77.0,70.0,29.88,North,0,0.0,0.0,79,0.00,,SCT120,0.00,VWS V14.01,2013-09-15 05:53:00,
2013-09-15 01:58:00,77.2,70.2,29.88,North,0,0.0,0.0,79,0.00,,SCT120,0.00,VWS V14.01,2013-09-15 05:58:00,
2013-09-15 02:03:00,77.0,70.0,29.88,North,0,0.0,0.0,79,0.00,,SCT120,0.00,VWS V14.01,2013-09-15 06:03:00,
2013-09-15 02:08:00,77.0,70.0,29.88,North,0,0.0,0.0,79,0.00,,SCT120,0.00,VWS V14.01,2013-09-15 06:08:00,
2013-09-15 02:13:00,77.0,70.0,29.88,North,0,0.0,0.0,79,0.00,,SCT120,0.00,VWS V14.01,2013-09-15 06:13:00,
2013-09-15 02:18:00,76.8,70.2,29.88,North,0,0.0,0.0,80,0.00,,SCT120,0.00,VWS V14.01,2013-09-15 06:18:00,
2013-09-15 02:23:00,76.8,70.2,29.88,North,0,0.0,0.0,80,0.00,,SCT120,0.00,VWS V14.01,2013-09-15 06:23:00,
2013-09-15 02:28:00,76.6,70.0,29.88,North,0,0.0,0.0,80,0.00,,SCT120,0.00,VWS V14.01,2013-09-15 06:28:00,
2013-09-15 02:33:00,76.6,70.0,29.88,North,0,0.0,0.0,80,0.00,,SCT120,0.00,VWS V14.01,2013-09-15 06:33:00,
2013-09-15 02:38:00,76.6,70.0,29.88,North,0,0.0,0.0,80,0.00,,SCT120,0.00,VWS V14.01,2013-09-15 06:38:00,
2013-09-15 02:43:00,76.6,70.4,29.85,North,0,0.0,0.0,81,0.00,,SCT120,0.00,VWS V14.01,2013-09-15 06:43:00,
2013-09-15 02:48:00,76.6,70.4,29.85,North,0,0.0,0.0,81,0.00,,SCT120,0.00,VWS V14.01,2013-09-15 06:48:00,
2013-09-15 02:53:00,76.8,70.6,29.85,North,0,0.0,0.0,81,0.00,,SCT120,0.00,VWS V14.01,2013-09-15 06:53:00,
2013-09-15 02:58:00,76.8,70.6,29.88,North,0,0.0,0.0,81,0.00,,SCT120,0.00,VWS V14.01,2013-09-15 06:58:00,
2013-09-15 03:03:00,76.6,70.4,29.88,North,0,0.0,0.0,81,0.00,,SCT120,0.00,VWS V14.01,2013-09-15 07:03:00,
2013-09-15 03:08:00,76.5,70.2,29.88,North,0,0.0,0.0,81,0.00,,SCT120,0.00,VWS V14.01,2013-09-15 07:08:00,
2013-09-15 03:13:00,76.6,70.7,29.88,North,0,0.0,0.0,82,0.00,,SCT120,0.00,VWS V14.01,2013-09-15 07:13:00,
2013-09-15 03:18:00,76.5,70.6,29.88,North,0,0.0,0.0,82,0.00,,SCT120,0.00,VWS V14.01,2013-09-15 07:18:00,
2013-09-15 03:23:00,76.5,70.6,29.88,North,0,0.0,0.0,82,0.00,,SCT120,0.00,VWS V14.01,2013-09-15 07:23:00,
2013-09-15 03:28:00,76.6,70.7,29.88,North,0,0.0,0.0,82,0.00,,SCT120,0.00,VWS V14.01,2013-09-15 07:28:00,
2013-09-15 03:33:00,76.5,70.6,29.88,North,0,0.0,0.0,82,0.00,,SCT120,0.00,VWS V14.01,2013-09-15 07:33:00,
2013-09-15 03:38:00,76.1,70.2,29.88,North,0,0.0,0.0,82,0.00,,SCT120,0.00,VWS V14.01,2013-09-15 07:38:00,
2013-09-15 03:43:00,76.1,70.2,29.88,North,0,0.0,0.0,82,0.00,,SCT120,0.00,VWS V14.01,2013-09-15 07:43:00,
2013-09-15 03:48:00,75.9,70.0,29.88,North,0,0.0,0.0,82,0.00,,SCT120,0.00,VWS V14.01,2013-09-15 07:48:00,
2013-09-15 03:53:00,76.1,70.2,29.88,North,0,0.0,0.0,82,0.00,,SCT120,0.00,VWS V14.01,2013-09-15 07:53:00,
2013-09-15 03:58:00,76.1,70.2,29.88,North,0,0.0,0.0,82,0.00,,SCT120,0.00,VWS V14.01,2013-09-15 07:58:00,
2013-09-15 04:03:00,76.1,70.2,29.88,North,0,0.0,0.0,82,0.00,,SCT120,0.00,VWS V14.01,2013-09-15 08:03:00,
2013-09-15 04:08:00,76.1,70.6,29.88,North,0,0.0,0.0,83,0.00,,SCT120,0.00,VWS V14.01,2013-09-15 08:08:00,
2013-09-15 04:13:00,76.1,70.6,29.88,North,0,0.0,0.0,83,0.00,,SCT120,0.00,VWS V14.01,2013-09-15 08:13:00,
2013-09-15 04:18:00,76.1,70.6,29.88,North,0,0.0,0.0,83,0.00,,SCT120,0.00,VWS V14.01,2013-09-15 08:18:00,
2013-09-15 04:23:00,76.1,70.6,29.88,North,0,0.0,0.0,83,0.00,,SCT120,0.00,VWS V14.01,2013-09-15 08:23:00,
2013-09-15 04:28:00,75.9,70.4,29.88,North,0,0.0,0.0,83,0.00,,SCT120,0.00,VWS V14.01,2013-09-15 08:28:00,
2013-09-15 04:33:00,75.7,70.2,29.88,North,0,0.0,0.0,83,0.00,,SCT120,0.00,VWS V14.01,2013-09-15 08:33:00,
2013-09-15 04:38:00,75.7,70.2,29.88,North,0,0.0,0.0,83,0.00,,SCT120,0.00,VWS V14.01,2013-09-15 08:38:00,
2013-09-15 04:43:00,75.7,70.2,29.88,North,0,0.0,0.0,83,0.00,,SCT120,0.00,VWS V14.01,2013-09-15 08:43:00,
2013-09-15 04:48:00,75.6,70.0,29.88,North,0,0.0,0.0,83,0.00,,SCT120,0.00,VWS V14.01,2013-09-15 08:48:00,
2013-09-15 04:53:00,75.6,70.0,29.88,North,0,0.0,0.0,83,0.00,,SCT120,0.00,VWS V14.01,2013-09-15 08:53:00,
2013-09-15 04:58:00,75.6,70.0,29.88,North,0,0.0,0.0,83,0.00,,SCT120,0.00,VWS V14.01,2013-09-15 08:58:00,
2013-09-15 05:03:00,75.6,70.4,29.88,North,0,0.0,0.0,84,0.00,,SCT120,0.00,VWS V14.01,2013-09-15 09:03:00,
2013-09-15 05:08:00,75.7,70.6,29.88,North,0,0.0,0.0,84,0.00,,SCT120,0.00,VWS V14.01,2013-09-15 09:08:00,
2013-09-15 05:13:00,75.7,70.6,29.88,North,0,0.0,0.0,84,0.00,,SCT120,0.00,VWS V14.01,2013-09-15 09:13:00,
2013-09-15 05:18:00,75.6,70.4,29.88,North,0,0.0,0.0,84,0.00,,SCT120,0.00,VWS V14.01,2013-09-15 09:18:00,
2013-09-15 05:23:00,75.6,70.4,29.88,North,0,0.0,0.0,84,0.00,,SCT120,0.00,VWS V14.01,2013-09-15 09:23:00,
2013-09-15 05:28:00,75.4,70.2,29.88,North,0,0.0,0.0,84,0.00,,SCT120,0.00,VWS V14.01,2013-09-15 09:28:00,
2013-09-15 05:33:00,75.4,70.2,29.88,North,0,0.0,0.0,84,0.00,,SCT120,0.00,VWS V14.01,2013-09-15 09:33:00,
2013-09-15 05:38:00,75.4,70.2,29.88,North,0,0.0,0.0,84,0.00,,SCT120,0.00,VWS V14.01,2013-09-15 09:38:00,
2013-09-15 05:43:00,75.4,70.2,29.88,North,0,0.0,0.0,84,0.00,,SCT120,0.00,VWS V14.01,2013-09-15 09:43:00,
2013-09-15 05:48:00,75.4,70.2,29.88,North,0,0.0,0.0,84,0.00,,SCT120,0.00,VWS V14.01,2013-09-15 09:48:00,
2013-09-15 05:53:00,75.2,70.0,29.88,North,0,0.0,0.0,84,0.00,,SCT120,0.00,VWS V14.01,2013-09-15 09:53:00,
2013-09-15 05:58:00,75.2,70.0,29.91,North,0,0.0,0.0,84,0.00,,SCT120,0.00,VWS V14.01,2013-09-15 09:58:00,
2013-09-15 06:03:00,75.2,70.4,29.91,North,0,0.0,0.0,85,0.00,,SCT120,0.00,VWS V14.01,2013-09-15 10:03:00,
2013-09-15 06:09:00,75.2,70.4,29.91,North,0,0.0,0.0,85,0.00,,SCT120,0.00,VWS V14.01,2013-09-15 10:09:00,
2013-09-15 06:14:00,75.0,70.2,29.91,North,0,0.0,0.0,85,0.00,,SCT120,0.00,VWS V14.01,2013-09-15 10:14:00,
2013-09-15 06:19:00,75.2,70.4,29.91,North,0,0.0,0.0,85,0.00,,SCT120,0.00,VWS V14.01,2013-09-15 10:19:00,
2013-09-15 06:24:00,75.2,70.4,29.91,North,0,0.0,0.0,85,0.00,,SCT120,0.00,VWS V14.01,2013-09-15 10:24:00,
2013-09-15 06:29:00,75.2,70.4,29.91,North,0,0.0,0.0,85,0.00,,SCT120,0.00,VWS V14.01,2013-09-15 10:29:00,
2013-09-15 06:34:00,75.2,70.4,29.91,North,0,0.0,0.0,85,0.00,,SCT120,0.00,VWS V14.01,2013-09-15 10:34:00,
2013-09-15 06:39:00,75.2,70.4,29.91,North,0,0.0,0.0,85,0.00,,SCT120,0.00,VWS V14.01,2013-09-15 10:39:00,
2013-09-15 06:44:00,75.4,70.9,29.91,North,0,0.0,0.0,86,0.00,,SCT120,0.00,VWS V14.01,2013-09-15 10:44:00,
2013-09-15 06:49:00,75.6,71.1,29.91,North,0,0.0,0.0,86,0.00,,SCT120,0.00,VWS V14.01,2013-09-15 10:49:00,
2013-09-15 06:54:00,75.9,71.4,29.91,North,0,0.0,0.0,86,0.00,,SCT120,0.00,VWS V14.01,2013-09-15 10:54:00,
2013-09-15 06:59:00,76.5,72.0,29.91,North,0,0.0,0.0,86,0.00,,SCT120,0.00,VWS V14.01,2013-09-15 10:59:00,
2013-09-15 07:04:00,76.6,72.1,29.91,North,0,0.0,0.0,86,0.00,,SCT120,0.00,VWS V14.01,2013-09-15 11:04:00,
2013-09-15 07:09:00,77.0,72.5,29.91,North,0,0.0,0.0,86,0.00,,SCT120,0.00,VWS V14.01,2013-09-15 11:09:00,
2013-09-15 07:14:00,77.4,72.8,29.94,North,0,0.0,0.0,86,0.00,,SCT120,0.00,VWS V14.01,2013-09-15 11:14:00,
2013-09-15 07:19:00,77.7,73.2,29.94,North,0,0.0,0.0,86,0.00,,SCT120,0.00,VWS V14.01,2013-09-15 11:19:00,
2013-09-15 07:24:00,78.1,73.6,29.94,North,0,0.0,0.0,86,0.00,,SCT120,0.00,VWS V14.01,2013-09-15 11:24:00,
2013-09-15 07:29:00,78.4,73.9,29.94,North,0,0.0,0.0,86,0.00,,SCT120,0.00,VWS V14.01,2013-09-15 11:29:00,
2013-09-15 07:34:00,78.8,74.3,29.94,North,0,0.0,0.0,86,0.00,,SCT120,0.00,VWS V14.01,2013-09-15 11:34:00,
2013-09-15 07:39:00,79.3,74.8,29.94,North,0,0.0,0.0,86,0.00,,SCT120,0.00,VWS V14.01,2013-09-15 11:39:00,
2013-09-15 07:44:00,79.7,75.2,29.94,North,0,0.0,0.0,86,0.00,,SCT120,0.00,VWS V14.01,2013-09-15 11:44:00,
2013-09-15 07:49:00,80.1,75.5,29.94,North,0,0.0,0.0,86,0.00,,SCT120,0.00,VWS V14.01,2013-09-15 11:49:00,
2013-09-15 07:54:00,80.2,75.3,29.94,North,0,0.0,0.0,85,0.00,,SCT120,0.00,VWS V14.01,2013-09-15 11:54:00,
2013-09-15 07:59:00,80.8,75.5,29.94,North,0,0.0,0.0,84,0.00,,SCT120,0.00,VWS V14.01,2013-09-15 11:59:00,
2013-09-15 08:04:00,81.1,75.5,29.94,North,0,0.0,0.0,83,0.00,,SCT120,0.00,VWS V14.01,2013-09-15 12:04:00,
2013-09-15 08:09:00,81.3,75.3,29.94,North,0,0.0,0.0,82,0.00,,SCT120,0.00,VWS V14.01,2013-09-15 12:09:00,
2013-09-15 08:14:00,81.5,74.4,29.94,North,0,0.0,0.0,79,0.00,,SCT120,0.00,VWS V14.01,2013-09-15 12:14:00,
2013-09-15 08:19:00,81.7,73.8,29.94,North,0,0.0,0.0,77,0.00,,SCT120,0.00,VWS V14.01,2013-09-15 12:19:00,
2013-09-15 08:24:00,82.0,73.3,29.94,North,0,0.0,0.0,75,0.00,,SCT120,0.00,VWS V14.01,2013-09-15 12:24:00,
2013-09-15 08:29:00,82.6,72.7,29.94,North,0,0.0,0.0,72,0.00,,SCT120,0.00,VWS V14.01,2013-09-15 12:29:00,
2013-09-15 08:34:00,82.9,71.7,29.94,North,0,0.0,0.0,69,0.00,,SCT120,0.00,VWS V14.01,2013-09-15 12:34:00,
2013-09-15 08:39:00,83.1,68.3,29.94,North,0,0.0,0.0,61,0.00,,SCT120,0.00,VWS V14.01,2013-09-15 12:39:00,
2013-09-15 08:44:00,83.7,68.3,29.94,North,0,0.0,0.0,60,0.00,,SCT120,0.00,VWS V14.01,2013-09-15 12:44:00,
2013-09-15 08:49:00,83.8,66.5,29.94,North,0,0.0,0.0,56,0.00,,SCT120,0.00,VWS V14.01,2013-09-15 12:49:00,
2013-09-15 08:54:00,84.2,64.1,29.94,North,0,0.0,0.0,51,0.00,,SCT120,0.00,VWS V14.01,2013-09-15 12:54:00,
2013-09-15 08:59:00,84.7,63.5,29.94,North,0,0.0,0.0,49,0.00,,SCT120,0.00,VWS V14.01,2013-09-15 12:59:00,
2013-09-15 09:04:00,85.3,61.6,29.94,North,0,0.0,0.0,45,0.00,,SCT120,0.00,VWS V14.01,2013-09-15 13:04:00,
2013-09-15 09:09:00,85.5,59.1,29.94,North,0,0.0,0.0,41,0.00,,SCT120,0.00,VWS V14.01,2013-09-15 13:09:00,
2013-09-15 09:14:00,85.8,58.0,29.94,North,0,0.0,0.0,39,0.00,,SCT120,0.00,VWS V14.01,2013-09-15 13:14:00,
2013-09-15 09:19:00,85.8,58.0,29.94,North,0,0.0,0.0,39,0.00,,SCT120,0.00,VWS V14.01,2013-09-15 13:19:00,
2013-09-15 09:24:00,86.4,58.5,29.94,North,0,0.0,0.0,39,0.00,,SCT120,0.00,VWS V14.01,2013-09-15 13:24:00,
2013-09-15 09:29:00,86.7,58.1,29.94,North,0,0.0,0.0,38,0.00,,SCT120,0.00,VWS V14.01,2013-09-15 13:29:00,
2013-09-15 09:34:00,87.1,58.4,29.94,North,0,0.0,0.0,38,0.00,,SCT120,0.00,VWS V14.01,2013-09-15 13:34:00,
2013-09-15 09:39:00,87.3,56.3,29.94,North,0,0.0,0.0,35,0.00,,SCT120,0.00,VWS V14.01,2013-09-15 13:39:00,
2013-09-15 09:44:00,87.6,55.8,29.94,North,0,0.0,0.0,34,0.00,,SCT120,0.00,VWS V14.01,2013-09-15 13:44:00,
2013-09-15 09:49:00,87.8,54.3,29.94,North,0,0.0,0.0,32,0.00,,SCT120,0.00,VWS V14.01,2013-09-15 13:49:00,
2013-09-15 09:54:00,88.0,54.5,29.94,North,0,0.0,0.0,32,0.00,,SCT120,0.00,VWS V14.01,2013-09-15 13:54:00,
2013-09-15 09:59:00,88.2,56.3,29.94,North,0,0.0,0.0,34,0.00,,SCT120,0.04,VWS V14.01,2013-09-15 13:59:00,
2013-09-15 10:04:00,88.7,55.9,29.94,North,0,0.0,0.0,33,0.00,,SCT120,0.00,VWS V14.01,2013-09-15 14:04:00,
2013-09-15 10:09:00,89.2,55.5,29.94,North,0,0.0,0.0,32,0.00,,SCT120,0.00,VWS V14.01,2013-09-15 14:09:00,
2013-09-15 10:14:00,89.4,53.9,29.94,North,0,0.0,0.0,30,0.00,,SCT120,0.00,VWS V14.01,2013-09-15 14:14:00,
2013-09-15 10:19:00,90.0,53.5,29.94,North,0,0.0,0.0,29,0.00,,SCT120,0.00,VWS V14.01,2013-09-15 14:19:00,
2013-09-15 10:24:00,89.2,52.9,29.94,North,0,0.0,0.0,29,0.00,,SCT120,0.00,VWS V14.01,2013-09-15 14:24:00,
2013-09-15 10:29:00,89.6,53.2,29.94,North,0,0.0,0.0,29,0.00,,SCT120,0.00,VWS V14.01,2013-09-15 14:29:00,
2013-09-15 10:34:00,89.6,53.2,29.94,North,0,0.0,0.0,29,0.00,,SCT120,0.00,VWS V14.01,2013-09-15 14:34:00,
2013-09-15 10:39:00,90.3,53.8,29.94,North,0,0.0,0.0,29,0.00,,SCT120,0.00,VWS V14.01,2013-09-15 14:39:00,
2013-09-15 10:44:00,90.9,53.3,29.94,North,0,0.0,0.0,28,0.00,,SCT120,0.00,VWS V14.01,2013-09-15 14:44:00,
2013-09-15 10:49:00,90.7,53.1,29.94,North,0,0.0,0.0,28,0.00,,SCT120,0.00,VWS V14.01,2013-09-15 14:49:00,
2013-09-15 10:54:00,90.9,52.3,29.94,North,0,0.0,0.0,27,0.00,,SCT120,0.00,VWS V14.01,2013-09-15 14:54:00,
2013-09-15 10:59:00,90.9,53.3,29.94,North,0,0.0,0.0,28,0.00,,SCT120,0.00,VWS V14.01,2013-09-15 14:59:00,
2013-09-15 11:04:00,91.6,52.9,29.94,North,0,0.0,0.0,27,0.00,,SCT120,0.00,VWS V14.01,2013-09-15 15:04:00,
2013-09-15 11:09:00,91.4,49.6,29.94,North,0,0.0,0.0,24,0.00,,SCT120,0.00,VWS V14.01,2013-09-15 15:09:00,
2013-09-15 11:14:00,91.8,49.9,29.94,North,0,0.0,0.0,24,0.00,,SCT120,0.00,VWS V14.01,2013-09-15 15:14:00,
2013-09-15 11:19:00,92.3,50.3,29.94,North,0,0.0,0.0,24,0.00,,SCT120,0.00,VWS V14.01,2013-09-15 15:19:00,
2013-09-15 11:24:00,91.9,50.0,29.94,North,0,0.0,0.0,24,0.00,,SCT120,0.00,VWS V14.01,2013-09-15 15:24:00,
2013-09-15 11:29:00,91.8,52.0,29.94,North,0,0.0,0.0,26,0.00,,SCT120,0.00,VWS V14.01,2013-09-15 15:29:00,
2013-09-15 11:34:00,91.4,48.4,29.94,North,0,0.0,0.0,23,0.00,,SCT120,0.00,VWS V14.01,2013-09-15 15:34:00,
2013-09-15 11:39:00,91.0,51.4,29.94,North,0,0.0,0.0,26,0.00,,SCT120,0.00,VWS V14.01,2013-09-15 15:39:00,
2013-09-15 11:44:00,91.8,48.7,29.94,North,0,0.0,0.0,23,0.00,,SCT120,0.00,VWS V14.01,2013-09-15 15:44:00,
2013-09-15 11:49:00,92.5,42.9,29.94,North,0,0.0,0.0,18,0.00,,SCT120,0.00,VWS V14.01,2013-09-15 15:49:00,
2013-09-15 11:54:00,93.7,42.4,29.94,North,0,0.0,0.0,17,0.00,,SCT120,0.00,VWS V14.01,2013-09-15 15:54:00,
2013-09-15 11:59:00,95.4,42.1,29.91,North,0,0.0,0.0,16,0.00,,SCT120,0.00,VWS V14.01,2013-09-15 15:59:00,
2013-09-15 12:04:00,96.1,33.2,29.91,North,0,0.0,0.0,11,0.00,,SCT120,0.00,VWS V14.01,2013-09-15 16:04:00,
2013-09-15 12:09:00,95.9,33.0,29.91,North,0,0.0,0.0,11,0.00,,SCT120,0.00,VWS V14.01,2013-09-15 16:09:00,
2013-09-15 12:14:00,96.8,33.7,29.91,North,0,0.0,0.0,11,0.00,,SCT120,0.00,VWS V14.01,2013-09-15 16:14:00,
2013-09-15 12:19:00,96.8,25.9,29.91,North,0,0.0,0.0,8,0.00,,SCT120,0.00,VWS V14.01,2013-09-15 16:19:00,
2013-09-15 12:25:00,97.0,26.0,29.91,North,0,0.0,0.0,8,0.00,,SCT120,0.00,VWS V14.01,2013-09-15 16:25:00,
2013-09-15 12:30:00,97.3,26.3,29.91,North,0,0.0,0.0,8,0.00,,SCT120,0.00,VWS V14.01,2013-09-15 16:30:00,
2013-09-15 12:35:00,97.5,26.4,29.91,North,0,0.0,0.0,8,0.00,,SCT120,0.00,VWS V14.01,2013-09-15 16:35:00,
2013-09-15 12:40:00,97.9,26.7,29.91,North,0,0.0,0.0,8,0.00,,SCT120,0.00,VWS V14.01,2013-09-15 16:40:00,
2013-09-15 12:45:00,97.2,26.1,29.91,North,0,0.0,0.0,8,0.00,,SCT120,0.00,VWS V14.01,2013-09-15 16:45:00,
2013-09-15 12:50:00,97.2,26.1,29.91,North,0,0.0,0.0,8,0.00,,SCT120,0.00,VWS V14.01,2013-09-15 16:50:00,
2013-09-15 12:55:00,97.3,26.3,29.91,North,0,0.0,0.0,8,0.00,,SCT120,0.00,VWS V14.01,2013-09-15 16:55:00,
2013-09-15 13:00:00,97.2,26.1,29.91,North,0,0.0,0.0,8,0.00,,SCT120,0.00,VWS V14.01,2013-09-15 17:00:00,
2013-09-15 13:05:00,96.8,25.9,29.91,North,0,0.0,0.0,8,0.00,,SCT120,0.00,VWS V14.01,2013-09-15 17:05:00,
2013-09-15 13:10:00,95.7,27.9,29.88,North,0,0.0,0.0,9,0.00,,SCT120,0.00,VWS V14.01,2013-09-15 17:10:00,
2013-09-15 13:15:00,95.5,27.8,29.88,North,0,0.0,0.0,9,0.00,,SCT120,0.00,VWS V14.01,2013-09-15 17:15:00,
2013-09-15 13:20:00,96.3,28.3,29.88,North,0,0.0,0.0,9,0.00,,SCT120,0.00,VWS V14.01,2013-09-15 17:20:00,
2013-09-15 13:25:00,96.8,25.9,29.88,North,0,0.0,0.0,8,0.00,,SCT120,0.00,VWS V14.01,2013-09-15 17:25:00,
2013-09-15 13:30:00,96.6,28.6,29.88,North,0,0.0,0.0,9,0.00,,SCT120,0.00,VWS V14.01,2013-09-15 17:30:00,
2013-09-15 13:36:00,96.6,28.6,29.88,North,0,0.0,0.0,9,0.00,,SCT120,0.00,VWS V14.01,2013-09-15 17:36:00,
2013-09-15 13:40:00,97.0,26.0,29.88,North,0,0.0,0.0,8,0.00,,SCT120,0.00,VWS V14.01,2013-09-15 17:40:00,
2013-09-15 13:46:00,97.9,19.8,29.88,North,0,0.0,0.0,6,0.00,,SCT120,0.00,VWS V14.01,2013-09-15 17:46:00,
2013-09-15 13:51:00,98.4,20.2,29.88,North,0,0.0,0.0,6,0.00,,SCT120,0.00,VWS V14.01,2013-09-15 17:51:00,
2013-09-15 13:56:00,98.4,20.2,29.88,North,0,0.0,0.0,6,0.00,,SCT120,0.00,VWS V14.01,2013-09-15 17:56:00,
2013-09-15 14:01:00,98.1,20.0,29.88,North,0,0.0,0.0,6,0.00,,SCT120,0.00,VWS V14.01,2013-09-15 18:01:00,
2013-09-15 14:06:00,98.2,20.1,29.88,North,0,0.0,0.0,6,0.00,,SCT120,0.00,VWS V14.01,2013-09-15 18:06:00,
2013-09-15 14:11:00,98.1,20.0,29.88,North,0,0.0,0.0,6,0.00,,SCT120,0.00,VWS V14.01,2013-09-15 18:11:00,
2013-09-15 14:16:00,98.1,20.0,29.88,North,0,0.0,0.0,6,0.00,,SCT120,0.00,VWS V14.01,2013-09-15 18:16:00,
2013-09-15 14:21:00,97.9,19.8,29.88,North,0,0.0,0.0,6,0.00,,SCT120,0.00,VWS V14.01,2013-09-15 18:21:00,
2013-09-15 14:26:00,97.5,26.4,29.88,North,0,0.0,0.0,8,0.00,,SCT120,0.00,VWS V14.01,2013-09-15 18:26:00,
2013-09-15 14:31:00,97.9,26.7,29.88,North,0,0.0,0.0,8,0.00,,SCT120,0.00,VWS V14.01,2013-09-15 18:31:00,
2013-09-15 14:36:00,98.2,27.0,29.88,North,0,0.0,0.0,8,0.00,,SCT120,0.00,VWS V14.01,2013-09-15 18:36:00,
2013-09-15 14:41:00,98.6,16.1,29.85,North,0,0.0,0.0,5,0.00,,SCT120,0.00,VWS V14.01,2013-09-15 18:41:00,
2013-09-15 14:46:00,98.6,27.2,29.85,North,0,0.0,0.0,8,0.00,,SCT120,0.00,VWS V14.01,2013-09-15 18:46:00,
2013-09-15 14:51:00,99.0,27.5,29.85,North,0,0.0,0.0,8,0.00,,SCT120,0.00,VWS V14.01,2013-09-15 18:51:00,
2013-09-15 14:56:00,99.3,16.6,29.85,North,0,0.0,0.0,5,0.00,,SCT120,0.00,VWS V14.01,2013-09-15 18:56:00,
2013-09-15 15:01:00,99.1,16.5,29.85,North,0,0.0,0.0,5,0.00,,SCT120,0.00,VWS V14.01,2013-09-15 19:01:00,
2013-09-15 15:06:00,98.2,20.1,29.85,North,0,0.0,0.0,6,0.00,,SCT120,0.00,VWS V14.01,2013-09-15 19:06:00,
2013-09-15 15:11:00,97.7,34.4,29.85,North,0,0.0,0.0,11,0.00,,SCT120,0.00,VWS V14.01,2013-09-15 19:11:00,
2013-09-15 15:16:00,97.5,38.5,29.85,North,0,0.0,0.0,13,0.00,,SCT120,0.00,VWS V14.01,2013-09-15 19:16:00,
2013-09-15 15:18:00,97.7,44.0,29.85,North,0,0.0,0.0,16,0.00,,SCT120,0.00,VWS V14.01,2013-09-15 19:18:00,
2013-09-15 15:23:00,98.1,38.9,29.85,North,0,0.0,0.0,13,0.00,,SCT120,0.00,VWS V14.01,2013-09-15 19:23:00,
2013-09-15 15:28:00,97.9,38.8,29.85,North,0,0.0,0.0,13,0.00,,SCT120,0.00,VWS V14.01,2013-09-15 19:28:00,
2013-09-15 15:33:00,97.7,44.0,29.85,North,0,0.0,0.0,16,0.00,,SCT120,0.00,VWS V14.01,2013-09-15 19:33:00,
2013-09-15 15:38:00,98.1,26.8,29.85,North,0,0.0,0.0,8,0.00,,SCT120,0.00,VWS V14.01,2013-09-15 19:38:00,
2013-09-15 15:43:00,97.7,26.5,29.85,North,0,0.0,0.0,8,0.00,,SCT120,0.00,VWS V14.01,2013-09-15 19:43:00,
2013-09-15 15:48:00,97.5,34.2,29.85,North,0,0.0,0.0,11,0.00,,SCT120,0.00,VWS V14.01,2013-09-15 19:48:00,
2013-09-15 15:53:00,97.7,38.6,29.85,North,0,0.0,0.0,13,0.00,,SCT120,0.00,VWS V14.01,2013-09-15 19:53:00,
2013-09-15 15:58:00,98.1,34.7,29.85,North,0,0.0,0.0,11,0.00,,SCT120,0.00,VWS V14.01,2013-09-15 19:58:00,
2013-09-15 16:03:00,97.3,34.1,29.85,North,0,0.0,0.0,11,0.00,,SCT120,0.00,VWS V14.01,2013-09-15 20:03:00,
2013-09-15 16:08:00,96.6,44.7,29.85,North,0,0.0,0.0,17,0.00,,SCT120,0.00,VWS V14.01,2013-09-15 20:08:00,
2013-09-15 16:13:00,96.1,45.8,29.85,North,0,0.0,0.0,18,0.00,,SCT120,0.00,VWS V14.01,2013-09-15 20:13:00,
2013-09-15 16:18:00,95.5,43.8,29.85,North,0,0.0,0.0,17,0.00,,SCT120,0.00,VWS V14.01,2013-09-15 20:18:00,
2013-09-15 16:23:00,95.2,45.0,29.85,North,0,0.0,0.0,18,0.00,,SCT120,0.00,VWS V14.01,2013-09-15 20:23:00,
2013-09-15 16:28:00,94.8,47.5,29.85,North,0,0.0,0.0,20,0.00,,SCT120,0.00,VWS V14.01,2013-09-15 20:28:00,
2013-09-15 16:33:00,95.4,46.6,29.85,North,0,0.0,0.0,19,0.00,,SCT120,0.00,VWS V14.01,2013-09-15 20:33:00,
2013-09-15 16:38:00,95.7,46.9,29.85,North,0,0.0,0.0,19,0.00,,SCT120,0.00,VWS V14.01,2013-09-15 20:38:00,
2013-09-15 16:43:00,96.1,45.8,29.85,North,0,0.0,0.0,18,0.00,,SCT120,0.00,VWS V14.01,2013-09-15 20:43:00,
2013-09-15 16:48:00,96.1,45.8,29.85,North,0,0.0,0.0,18,0.00,,SCT120,0.00,VWS V14.01,2013-09-15 20:48:00,
2013-09-15 16:53:00,95.5,45.3,29.85,North,0,0.0,0.0,18,0.00,,SCT120,0.00,VWS V14.01,2013-09-15 20:53:00,
2013-09-15 16:58:00,94.8,46.2,29.85,North,0,0.0,0.0,19,0.00,,SCT120,0.00,VWS V14.01,2013-09-15 20:58:00,
2013-09-15 17:03:00,94.8,47.5,29.85,North,0,0.0,0.0,20,0.00,,SCT120,0.00,VWS V14.01,2013-09-15 21:03:00,
2013-09-15 17:08:00,94.8,47.5,29.85,North,0,0.0,0.0,20,0.00,,SCT120,0.00,VWS V14.01,2013-09-15 21:08:00,
2013-09-15 17:13:00,94.8,47.5,29.85,North,0,0.0,0.0,20,0.00,,SCT120,0.00,VWS V14.01,2013-09-15 21:13:00,
2013-09-15 17:18:00,94.8,46.2,29.85,North,0,0.0,0.0,19,0.00,,SCT120,0.00,VWS V14.01,2013-09-15 21:18:00,
2013-09-15 17:23:00,94.8,43.3,29.85,North,0,0.0,0.0,17,0.00,,SCT120,0.00,VWS V14.01,2013-09-15 21:23:00,
2013-09-15 17:28:00,94.6,44.6,29.85,North,0,0.0,0.0,18,0.00,,SCT120,0.00,VWS V14.01,2013-09-15 21:28:00,
2013-09-15 17:33:00,94.6,44.6,29.85,North,0,0.0,0.0,18,0.00,,SCT120,0.00,VWS V14.01,2013-09-15 21:33:00,
2013-09-15 17:38:00,94.6,44.6,29.85,North,0,0.0,0.0,18,0.00,,SCT120,0.00,VWS V14.01,2013-09-15 21:38:00,
2013-09-15 17:43:00,94.1,44.2,29.85,North,0,0.0,0.0,18,0.00,,SCT120,0.00,VWS V14.01,2013-09-15 21:43:00,
2013-09-15 17:48:00,93.7,45.3,29.85,North,0,0.0,0.0,19,0.00,,SCT120,0.00,VWS V14.01,2013-09-15 21:48:00,
2013-09-15 17:53:00,93.4,45.0,29.85,North,0,0.0,0.0,19,0.00,,SCT120,0.00,VWS V14.01,2013-09-15 21:53:00,
2013-09-15 17:58:00,93.0,46.1,29.85,North,0,0.0,0.0,20,0.00,,SCT120,0.00,VWS V14.01,2013-09-15 21:58:00,
2013-09-15 18:03:00,92.7,45.8,29.85,North,0,0.0,0.0,20,0.00,,SCT120,0.00,VWS V14.01,2013-09-15 22:03:00,
2013-09-15 18:08:00,92.3,45.5,29.85,North,0,0.0,0.0,20,0.00,,SCT120,0.00,VWS V14.01,2013-09-15 22:08:00,
2013-09-15 18:13:00,92.1,45.3,29.85,North,0,0.0,0.0,20,0.00,,SCT120,0.00,VWS V14.01,2013-09-15 22:13:00,
2013-09-15 18:18:00,91.8,46.3,29.85,North,0,0.0,0.0,21,0.00,,SCT120,0.00,VWS V14.01,2013-09-15 22:18:00,
2013-09-15 18:23:00,91.4,47.2,29.85,North,0,0.0,0.0,22,0.00,,SCT120,0.00,VWS V14.01,2013-09-15 22:23:00,
2013-09-15 18:28:00,91.0,49.3,29.88,North,0,0.0,0.0,24,0.00,,SCT120,0.00,VWS V14.01,2013-09-15 22:28:00,
2013-09-15 18:33:00,91.0,51.4,29.88,North,0,0.0,0.0,26,0.00,,SCT120,0.00,VWS V14.01,2013-09-15 22:33:00,
2013-09-15 18:38:00,91.0,52.5,29.88,North,0,0.0,0.0,27,0.00,,SCT120,0.00,VWS V14.01,2013-09-15 22:38:00,
2013-09-15 18:43:00,90.7,52.1,29.88,North,0,0.0,0.0,27,0.00,,SCT120,0.00,VWS V14.01,2013-09-15 22:43:00,
2013-09-15 18:48:00,90.5,53.0,29.88,North,0,0.0,0.0,28,0.00,,SCT120,0.00,VWS V14.01,2013-09-15 22:48:00,
2013-09-15 18:53:00,90.3,52.8,29.88,North,0,0.0,0.0,28,0.00,,SCT120,0.00,VWS V14.01,2013-09-15 22:53:00,
2013-09-15 18:58:00,90.3,52.8,29.88,North,0,0.0,0.0,28,0.00,,SCT120,0.00,VWS V14.01,2013-09-15 22:58:00,
2013-09-15 19:04:00,90.1,52.7,29.88,North,0,0.0,0.0,28,0.00,,SCT120,0.00,VWS V14.01,2013-09-15 23:04:00,
2013-09-15 19:09:00,90.1,52.7,29.88,North,0,0.0,0.0,28,0.00,,SCT120,0.00,VWS V14.01,2013-09-15 23:09:00,
2013-09-15 19:14:00,90.0,52.5,29.88,North,0,0.0,0.0,28,0.00,,SCT120,0.00,VWS V14.01,2013-09-15 23:14:00,
2013-09-15 19:19:00,89.6,52.2,29.88,North,0,0.0,0.0,28,0.00,,SCT120,0.00,VWS V14.01,2013-09-15 23:19:00,
2013-09-15 19:24:00,89.4,53.0,29.88,North,0,0.0,0.0,29,0.00,,SCT120,0.00,VWS V14.01,2013-09-15 23:24:00,
2013-09-15 19:29:00,89.2,52.9,29.91,North,0,0.0,0.0,29,0.00,,SCT120,0.00,VWS V14.01,2013-09-15 23:29:00,
2013-09-15 19:34:00,88.9,53.5,29.91,North,0,0.0,0.0,30,0.00,,SCT120,0.00,VWS V14.01,2013-09-15 23:34:00,
2013-09-15 19:39:00,88.7,54.2,29.91,North,0,0.0,0.0,31,0.00,,SCT120,0.00,VWS V14.01,2013-09-15 23:39:00,
2013-09-15 19:44:00,88.2,54.6,29.91,North,0,0.0,0.0,32,0.00,,SCT120,0.00,VWS V14.01,2013-09-15 23:44:00,
2013-09-15 19:49:00,88.2,54.6,29.91,North,0,0.0,0.0,32,0.00,,SCT120,0.00,VWS V14.01,2013-09-15 23:49:00,
2013-09-15 19:54:00,88.0,54.5,29.91,North,0,0.0,0.0,32,0.00,,SCT120,0.00,VWS V14.01,2013-09-15 23:54:00,
2013-09-15 19:59:00,88.2,54.6,29.91,North,0,0.0,0.0,32,0.00,,SCT120,0.00,VWS V14.01,2013-09-15 23:59:00,
2013-09-15 20:04:00,88.0,54.5,29.91,North,0,0.0,0.0,32,0.00,,SCT120,0.00,VWS V14.01,2013-09-16 00:04:00,
2013-09-15 20:09:00,87.6,55.0,29.91,North,0,0.0,0.0,33,0.00,,SCT120,0.00,VWS V14.01,2013-09-16 00:09:00,
2013-09-15 20:14:00,87.3,55.5,29.91,North,0,0.0,0.0,34,0.00,,SCT120,0.00,VWS V14.01,2013-09-16 00:14:00,
2013-09-15 20:19:00,87.3,56.3,29.91,North,0,0.0,0.0,35,0.00,,SCT120,0.00,VWS V14.01,2013-09-16 00:19:00,
2013-09-15 20:24:00,87.3,57.1,29.91,North,0,0.0,0.0,36,0.00,,SCT120,0.00,VWS V14.01,2013-09-16 00:24:00,
2013-09-15 20:29:00,87.3,57.8,29.91,North,0,0.0,0.0,37,0.00,,SCT120,0.00,VWS V14.01,2013-09-16 00:29:00,
2013-09-15 20:34:00,87.4,58.0,29.91,North,0,0.0,0.0,37,0.00,,SCT120,0.00,VWS V14.01,2013-09-16 00:34:00,
2013-09-15 20:39:00,87.1,57.7,29.91,North,0,0.0,0.0,37,0.00,,SCT120,0.00,VWS V14.01,2013-09-16 00:39:00,
2013-09-15 20:44:00,87.1,58.4,29.91,North,0,0.0,0.0,38,0.00,,SCT120,0.00,VWS V14.01,2013-09-16 00:44:00,
2013-09-15 20:49:00,87.1,58.4,29.91,North,0,0.0,0.0,38,0.00,,SCT120,0.00,VWS V14.01,2013-09-16 00:49:00,
2013-09-15 20:54:00,86.9,59.0,29.91,North,0,0.0,0.0,39,0.00,,SCT120,0.00,VWS V14.01,2013-09-16 00:54:00,
2013-09-15 20:59:00,86.7,58.8,29.94,North,0,0.0,0.0,39,0.00,,SCT120,0.00,VWS V14.01,2013-09-16 00:59:00,
2013-09-15 21:04:00,86.4,58.5,29.94,North,0,0.0,0.0,39,0.00,,SCT120,0.00,VWS V14.01,2013-09-16 01:04:00,
2013-09-15 21:09:00,86.0,59.6,29.94,North,0,0.0,0.0,41,0.00,,SCT120,0.00,VWS V14.01,2013-09-16 01:09:00,
2013-09-15 21:14:00,85.6,60.6,29.94,North,0,0.0,0.0,43,0.00,,SCT120,0.00,VWS V14.01,2013-09-16 01:14:00,
2013-09-15 21:19:00,85.3,60.9,29.94,North,0,0.0,0.0,44,0.00,,SCT120,0.00,VWS V14.01,2013-09-16 01:19:00,
2013-09-15 21:24:00,85.3,61.6,29.94,North,0,0.0,0.0,45,0.00,,SCT120,0.00,VWS V14.01,2013-09-16 01:24:00,
2013-09-15 21:29:00,85.1,62.0,29.94,North,0,0.0,0.0,46,0.00,,SCT120,0.00,VWS V14.01,2013-09-16 01:29:00,
2013-09-15 21:34:00,85.1,62.0,29.94,North,0,0.0,0.0,46,0.00,,SCT120,0.00,VWS V14.01,2013-09-16 01:34:00,
2013-09-15 21:39:00,85.3,62.2,29.94,North,0,0.0,0.0,46,0.00,,SCT120,0.00,VWS V14.01,2013-09-16 01:39:00,
2013-09-15 21:44:00,85.1,62.6,29.94,North,0,0.0,0.0,47,0.00,,SCT120,0.00,VWS V14.01,2013-09-16 01:44:00,
2013-09-15 21:49:00,85.1,63.2,29.94,North,0,0.0,0.0,48,0.00,,SCT120,0.00,VWS V14.01,2013-09-16 01:49:00,
2013-09-15 21:54:00,84.9,63.1,29.94,North,0,0.0,0.0,48,0.00,,SCT120,0.00,VWS V14.01,2013-09-16 01:54:00,
2013-09-15 21:59:00,84.9,63.7,29.94,North,0,0.0,0.0,49,0.00,,SCT120,0.00,VWS V14.01,2013-09-16 01:59:00,
2013-09-15 22:04:00,85.1,65.0,29.94,North,0,0.0,0.0,51,0.00,,SCT120,0.00,VWS V14.01,2013-09-16 02:04:00,
2013-09-15 22:09:00,84.7,64.1,29.94,North,0,0.0,0.0,50,0.00,,SCT120,0.00,VWS V14.01,2013-09-16 02:09:00,
2013-09-15 22:14:00,84.4,64.3,29.94,North,0,0.0,0.0,51,0.00,,SCT120,0.00,VWS V14.01,2013-09-16 02:14:00,
2013-09-15 22:19:00,84.6,65.6,29.94,North,0,0.0,0.0,53,0.00,,SCT120,0.00,VWS V14.01,2013-09-16 02:19:00,
2013-09-15 22:24:00,84.7,66.3,29.94,North,0,0.0,0.0,54,0.00,,SCT120,0.00,VWS V14.01,2013-09-16 02:24:00,
2013-09-15 22:29:00,84.6,65.6,29.94,North,0,0.0,0.0,53,0.00,,SCT120,0.00,VWS V14.01,2013-09-16 02:29:00,
2013-09-15 22:34:00,84.7,66.3,29.94,North,0,0.0,0.0,54,0.00,,SCT120,0.00,VWS V14.01,2013-09-16 02:34:00,
2013-09-15 22:39:00,84.7,65.7,29.94,North,0,0.0,0.0,53,0.00,,SCT120,0.00,VWS V14.01,2013-09-16 02:39:00,
2013-09-15 22:44:00,84.2,65.2,29.94,North,0,0.0,0.0,53,0.00,,SCT120,0.00,VWS V14.01,2013-09-16 02:44:00,
2013-09-15 22:49:00,84.0,65.6,29.94,North,0,0.0,0.0,54,0.00,,SCT120,0.00,VWS V14.01,2013-09-16 02:49:00,
2013-09-15 22:54:00,83.8,66.0,29.94,North,0,0.0,0.0,55,0.00,,SCT120,0.00,VWS V14.01,2013-09-16 02:54:00,
2013-09-15 22:59:00,83.5,66.2,29.94,North,0,0.0,0.0,56,0.00,,SCT120,0.00,VWS V14.01,2013-09-16 02:59:00,
2013-09-15 23:04:00,83.1,66.8,29.94,North,0,0.0,0.0,58,0.00,,SCT120,0.00,VWS V14.01,2013-09-16 03:04:00,
2013-09-15 23:09:00,83.1,67.3,29.94,North,0,0.0,0.0,59,0.00,,SCT120,0.00,VWS V14.01,2013-09-16 03:09:00,
2013-09-15 23:14:00,82.9,67.6,29.94,North,0,0.0,0.0,60,0.00,,SCT120,0.00,VWS V14.01,2013-09-16 03:14:00,
2013-09-15 23:19:00,82.8,67.9,29.94,North,0,0.0,0.0,61,0.00,,SCT120,0.00,VWS V14.01,2013-09-16 03:19:00,
2013-09-15 23:24:00,82.8,67.9,29.94,North,0,0.0,0.0,61,0.00,,SCT120,0.00,VWS V14.01,2013-09-16 03:24:00,
2013-09-15 23:29:00,82.8,67.9,29.94,North,0,0.0,0.0,61,0.00,,SCT120,0.00,VWS V14.01,2013-09-16 03:29:00,
2013-09-15 23:34:00,82.9,68.6,29.94,North,0,0.0,0.0,62,0.00,,SCT120,0.00,VWS V14.01,2013-09-16 03:34:00,
2013-09-15 23:39:00,83.1,68.8,29.94,North,0,0.0,0.0,62,0.00,,SCT120,0.00,VWS V14.01,2013-09-16 03:39:00,
2013-09-15 23:44:00,83.1,68.8,29.94,North,0,0.0,0.0,62,0.00,,SCT120,0.00,VWS V14.01,2013-09-16 03:44:00,
2013-09-15 23:49:00,82.8,68.4,29.94,North,0,0.0,0.0,62,0.00,,SCT120,0.00,VWS V14.01,2013-09-16 03:49:00,
2013-09-15 23:54:00,82.6,68.2,29.94,North,0,0.0,0.0,62,0.00,,SCT120,0.00,VWS V14.01,2013-09-16 03:54:00,
2013-09-15 23:59:00,82.2,68.4,29.94,North,0,0.0,0.0,63,0.00,,SCT120,0.00,VWS V14.01,2013-09-16 03:59:00,